Time;durP1;ratioP1;P1;durP2;ratioP2;P2;SDS_P1;SDS_P2;PMS_P1;PMS_P2;Temp;Humidity;BMP_temperature;BMP_pressure;BME280_temperature;BME280_humidity;BME280_pressure;Samples;Min_cycle;Max_cycle;Signal;HPM_P1;HPM_P2
2022/08/05 00:01:54;;;;;;;;;;;;;;;22.30;71.69;100791.41;4983013;28;20014;-83
2022/08/05 00:04:20;;;;;;;;;;;;;;;22.18;71.63;100782.31;4984513;28;19922;-84
2022/08/05 00:06:46;;;;;;;;;;;;;;;22.08;71.79;100783.72;4987948;28;20267;-83
2022/08/05 00:09:11;;;;;;;;;;;;;;;22.12;71.15;100776.69;4981332;28;19980;-83
2022/08/05 00:11:38;;;;;;;;;;;;;;;22.11;70.55;100777.75;4982348;28;19933;-84
2022/08/05 00:14:03;;;;;;;;;;;;;;;21.99;70.53;100771.41;4986347;28;19918;-82
2022/08/05 00:16:29;;;;;;;;;;;;;;;21.84;70.77;100771.84;4980674;28;19922;-85
2022/08/05 00:18:54;;;;;;;;;;;;;;;21.91;70.54;100771.75;4985623;28;20458;-85
2022/08/05 00:21:19;;;;;;;;;;;;;;;21.85;70.54;100768.03;4975107;28;19926;-82
2022/08/05 00:23:45;;;;;;;;;;;;;;;21.96;70.48;100768.31;4973604;28;20399;-83
2022/08/05 00:26:10;;;;;;;;;;;;;;;21.89;70.72;100768.41;4985289;28;19926;-82
2022/08/05 00:28:36;;;;;;;;;;;;;;;22.00;70.39;100767.59;4987437;28;19918;-83
2022/08/05 00:31:01;;;;;;;;;;;;;;;22.00;70.49;100767.59;4989608;28;19918;-83
2022/08/05 00:33:27;;;;;;;;;;;;;;;21.94;70.89;100765.81;4990137;28;19914;-83
2022/08/05 00:35:52;;;;;;;;;;;;;;;21.89;71.12;100768.41;4985266;28;19921;-83
2022/08/05 00:38:17;;;;;;;;;;;;;;;21.82;71.36;100768.53;4992341;28;19937;-81
2022/08/05 00:40:53;;;;;;;;;;;;;;;21.78;71.39;100761.00;4994059;28;19918;-82
2022/08/05 00:43:18;;;;;;;;;;;;;;;21.72;71.85;100757.28;4986610;28;19930;-83
2022/08/05 00:45:44;;;;;;;;;;;;;;;21.70;71.96;100763.00;5007244;28;20355;-82
2022/08/05 00:48:17;;;;;;;;;;;;;;;21.58;72.70;100761.28;4991297;28;19922;-83
2022/08/05 00:50:44;;;;;;;;;;;;;;;21.62;72.87;100751.53;4996075;28;19918;-82
2022/08/05 00:53:09;;;;;;;;;;;;;;;21.44;72.94;100757.88;4994609;28;20412;-82
2022/08/05 00:55:37;;;;;;;;;;;;;;;21.54;72.69;100755.44;4996785;28;19965;-83
2022/08/05 00:58:02;;;;;;;;;;;;;;;21.50;72.80;100755.06;4995161;28;19925;-82
2022/08/05 01:00:28;;;;;;;;;;;;;;;21.48;72.93;100748.97;4995110;28;19918;-85
2022/08/05 01:02:54;;;;;;;;;;;;;;;21.24;73.54;100750.75;5001460;28;19953;-82
2022/08/05 01:05:19;;;;;;;;;;;;;;;21.20;73.87;100749.53;4999116;28;19965;-82
2022/08/05 01:07:44;;;;;;;;;;;;;;;21.30;73.44;100757.19;4994248;28;20396;-83
2022/08/05 01:10:13;;;;;;;;;;;;;;;21.37;73.07;100743.44;4993874;28;20009;-82
2022/08/05 01:12:40;;;;;;;;;;;;;;;21.39;72.62;100752.25;4989224;28;19936;-85
2022/08/05 01:15:06;;;;;;;;;;;;;;;21.38;72.79;100742.38;4994590;28;19929;-82
2022/08/05 01:17:35;;;;;;;;;;;;;;;21.29;72.57;100750.88;4981618;28;19925;-82
2022/08/05 01:20:06;;;;;;;;;;;;;;;21.36;72.48;100752.72;4993363;28;19924;-83
2022/08/05 01:22:38;;;;;;;;;;;;;;;21.34;72.33;100752.94;4998867;28;20297;-81
2022/08/05 01:25:10;;;;;;;;;;;;;;;21.29;72.51;100750.88;4993411;28;19917;-82
2022/08/05 01:27:47;;;;;;;;;;;;;;;21.29;72.41;100748.16;4988604;28;19945;-82
2022/08/05 01:30:14;;;;;;;;;;;;;;;21.32;72.03;100748.75;4989576;28;20021;-82
2022/08/05 01:32:42;;;;;;;;;;;;;;;21.32;72.02;100740.56;4992422;28;19921;-83
2022/08/05 01:35:08;;;;;;;;;;;;;;;21.26;72.14;100751.34;4997679;28;20001;-84
2022/08/05 01:37:44;;;;;;;;;;;;;;;21.18;72.30;100748.09;4992669;28;20439;-82
2022/08/05 01:40:11;;;;;;;;;;;;;;;21.29;71.80;100737.22;4987745;28;19918;-83
2022/08/05 01:42:37;;;;;;;;;;;;;;;21.20;71.79;100741.31;4994998;28;20021;-84
2022/08/05 01:45:03;;;;;;;;;;;;;;;21.24;71.39;100739.81;4996777;28;19945;-83
2022/08/05 01:47:30;;;;;;;;;;;;;;;21.18;71.67;100737.97;4987209;28;19922;-83
2022/08/05 01:49:55;;;;;;;;;;;;;;;21.26;71.42;100729.47;4990713;28;19928;-83
2022/08/05 01:52:21;;;;;;;;;;;;;;;21.31;71.16;100737.00;4994355;28;19922;-82
2022/08/05 01:55:06;;;;;;;;;;;;;;;21.27;71.46;100743.97;4981291;28;19984;-82
2022/08/05 01:57:32;;;;;;;;;;;;;;;21.27;71.28;100743.97;4996877;28;19922;-80
2022/08/05 01:59:59;;;;;;;;;;;;;;;21.35;71.14;100740.91;5002169;28;19922;-83
2022/08/05 02:02:25;;;;;;;;;;;;;;;21.37;70.99;100737.97;5001115;28;19922;-81
2022/08/05 02:04:50;;;;;;;;;;;;;;;21.35;71.28;100734.63;5001657;28;20457;-82
2022/08/05 02:07:17;;;;;;;;;;;;;;;21.32;71.57;100740.56;4991131;28;20418;-82
2022/08/05 02:09:43;;;;;;;;;;;;;;;21.11;72.43;100739.97;4988619;28;20017;-83
2022/08/05 02:12:17;;;;;;;;;;;;;;;21.18;72.51;100735.25;4989700;28;20005;-82
2022/08/05 02:14:52;;;;;;;;;;;;;;;21.13;72.60;100735.09;5007901;28;20374;-83
2022/08/05 02:17:36;;;;;;;;;;;;;;;20.87;73.41;100738.97;4990017;28;19921;-82
2022/08/05 02:20:02;;;;;;;;;;;;;;;20.84;73.50;100739.44;4991982;28;19996;-82
2022/08/05 02:22:29;;;;;;;;;;;;;;;20.98;72.98;100735.50;4980458;28;20294;-81
2022/08/05 02:24:56;;;;;;;;;;;;;;;20.80;73.42;100732.75;4993112;28;19922;-83
2022/08/05 02:27:22;;;;;;;;;;;;;;;20.89;73.04;100730.56;4992702;28;19921;-82
2022/08/05 02:29:48;;;;;;;;;;;;;;;20.84;73.47;100740.28;4986343;28;20529;-83
2022/08/05 02:32:15;;;;;;;;;;;;;;;20.80;73.58;100739.06;4985965;28;20310;-83
2022/08/05 02:34:40;;;;;;;;;;;;;;;20.82;73.65;100739.66;4992942;28;19936;-82
2022/08/05 02:37:07;;;;;;;;;;;;;;;20.75;73.76;100741.63;4983273;28;19922;-81
2022/08/05 02:39:34;;;;;;;;;;;;;;;20.84;73.27;100734.81;4992581;28;19953;-83
2022/08/05 02:42:00;;;;;;;;;;;;;;;20.82;72.99;100736.94;4991447;28;20506;-82
2022/08/05 02:44:27;;;;;;;;;;;;;;;20.83;72.76;100744.06;5001612;28;19918;-82
2022/08/05 02:46:54;;;;;;;;;;;;;;;20.92;72.64;100730.94;4975320;28;19918;-82
2022/08/05 02:49:20;;;;;;;;;;;;;;;20.87;72.13;100737.06;4993077;28;19918;-84
2022/08/05 02:51:45;;;;;;;;;;;;;;;20.85;72.11;100731.00;4989734;28;19925;-84
2022/08/05 02:54:12;;;;;;;;;;;;;;;20.75;72.26;100730.69;4991373;28;19922;-82
2022/08/05 02:56:39;;;;;;;;;;;;;;;20.86;71.69;100740.88;4994172;28;19944;-82
2022/08/05 02:59:04;;;;;;;;;;;;;;;20.89;71.15;100741.50;4991167;28;19970;-82
2022/08/05 03:01:30;;;;;;;;;;;;;;;20.93;71.15;100748.16;4987958;28;20021;-82
2022/08/05 03:03:57;;;;;;;;;;;;;;;20.90;70.83;100748.63;5005560;28;20462;-83
2022/08/05 03:06:24;;;;;;;;;;;;;;;21.04;70.75;100744.66;4986447;28;19919;-82
2022/08/05 03:08:50;;;;;;;;;;;;;;;20.97;70.33;100741.19;4987707;28;20397;-87
2022/08/05 03:11:22;;;;;;;;;;;;;;;21.00;70.15;100737.97;5002296;28;19922;-82
2022/08/05 03:13:47;;;;;;;;;;;;;;;20.91;69.73;100744.81;4987790;28;19928;-82
2022/08/05 03:16:13;;;;;;;;;;;;;;;20.98;69.78;100740.13;4985463;28;20386;-82
2022/08/05 03:18:39;;;;;;;;;;;;;;;21.01;69.67;100745.13;5011208;28;20359;-82
2022/08/05 03:21:05;;;;;;;;;;;;;;;21.13;69.18;100750.69;4991194;28;19921;-82
2022/08/05 03:23:32;;;;;;;;;;;;;;;21.11;69.00;100753.63;4987636;28;19972;-84
2022/08/05 03:25:58;;;;;;;;;;;;;;;21.14;69.05;100745.00;4989697;28;20057;-84
2022/08/05 03:28:25;;;;;;;;;;;;;;;21.13;68.71;100754.25;4999242;28;19929;-83
2022/08/05 03:30:50;;;;;;;;;;;;;;;21.23;68.38;100754.53;4989551;28;19940;-82
2022/08/05 03:33:16;;;;;;;;;;;;;;;21.17;68.01;100752.72;4990005;28;20008;-82
2022/08/05 03:35:45;;;;;;;;;;;;;;;21.32;67.26;100754.22;4991181;28;20028;-83
2022/08/05 03:38:10;;;;;;;;;;;;;;;21.33;67.20;100751.28;5002182;28;19918;-84
2022/08/05 03:40:38;;;;;;;;;;;;;;;21.45;66.50;100757.66;4987026;28;20029;-83
2022/08/05 03:43:04;;;;;;;;;;;;;;;21.54;65.83;100755.44;4976882;28;19929;-85
2022/08/05 03:45:39;;;;;;;;;;;;;;;21.68;65.28;100761.53;5007150;28;20008;-83
2022/08/05 03:48:07;;;;;;;;;;;;;;;21.71;64.77;100755.63;4978889;28;19924;-84
2022/08/05 03:50:40;;;;;;;;;;;;;;;21.72;64.63;100754.53;4991691;28;19972;-83
2022/08/05 03:53:13;;;;;;;;;;;;;;;21.81;64.50;100766.00;4974410;28;20287;-84
2022/08/05 03:55:41;;;;;;;;;;;;;;;21.81;64.08;100755.88;4970136;28;20024;-84
2022/08/05 03:58:09;;;;;;;;;;;;;;;21.90;63.66;100759.13;4989391;28;19922;-83
2022/08/05 04:00:34;;;;;;;;;;;;;;;22.09;63.35;100752.50;5005476;28;19918;-82
2022/08/05 04:03:01;;;;;;;;;;;;;;;22.13;62.85;100758.38;4981420;28;19984;-82
2022/08/05 04:05:28;;;;;;;;;;;;;;;22.22;62.45;100761.59;4995767;28;20012;-83
2022/08/05 04:07:59;;;;;;;;;;;;;;;22.29;62.33;100763.19;4982333;28;19922;-84
2022/08/05 04:10:25;;;;;;;;;;;;;;;22.41;61.93;100759.63;4998696;28;19992;-81
2022/08/05 04:12:51;;;;;;;;;;;;;;;22.50;61.84;100763.66;4982941;28;20231;-81
2022/08/05 04:15:19;;;;;;;;;;;;;;;22.61;61.42;100759.28;5004419;28;19976;-80
2022/08/05 04:17:44;;;;;;;;;;;;;;;22.76;60.59;100751.41;4972247;28;20023;-83
2022/08/05 04:20:20;;;;;;;;;;;;;;;22.74;60.58;100751.63;4989880;28;20370;-80
2022/08/05 04:22:45;;;;;;;;;;;;;;;22.93;60.44;100746.03;4974050;28;19921;-81
2022/08/05 04:25:11;;;;;;;;;;;;;;;22.96;60.04;100745.53;4974408;28;19929;-80
2022/08/05 04:27:48;;;;;;;;;;;;;;;22.95;59.79;100743.88;4990549;28;19929;-81
2022/08/05 04:30:20;;;;;;;;;;;;;;;22.93;59.33;100737.81;4990606;28;19983;-82
2022/08/05 04:32:45;;;;;;;;;;;;;;;22.98;59.40;100740.66;4992431;28;19918;-82
2022/08/05 04:35:11;;;;;;;;;;;;;;;23.04;59.23;100752.56;4991293;28;20297;-81
2022/08/05 04:37:36;;;;;;;;;;;;;;;23.02;59.34;100744.59;4989459;28;19926;-82
2022/08/05 04:40:02;;;;;;;;;;;;;;;23.05;59.35;100752.34;4990288;28;19928;-81
2022/08/05 04:42:29;;;;;;;;;;;;;;;23.22;58.60;100748.84;4990438;28;20345;-81
2022/08/05 04:44:56;;;;;;;;;;;;;;;23.33;58.08;100748.81;4990705;28;19922;-81
2022/08/05 04:47:21;;;;;;;;;;;;;;;23.53;57.74;100742.06;4990213;28;19924;-81
2022/08/05 04:49:46;;;;;;;;;;;;;;;23.72;57.34;100754.50;4990639;28;19917;-81
2022/08/05 04:52:15;;;;;;;;;;;;;;;24.01;56.49;100751.75;4990224;28;19918;-81
2022/08/05 04:54:41;;;;;;;;;;;;;;;24.20;55.52;100750.44;4992863;28;19922;-81
2022/08/05 04:57:06;;;;;;;;;;;;;;;24.53;55.26;100754.28;4994419;28;19926;-81
2022/08/05 04:59:31;;;;;;;;;;;;;;;24.77;54.78;100751.31;4990004;28;19921;-82
2022/08/05 05:01:58;;;;;;;;;;;;;;;25.10;54.09;100747.69;4980591;28;19926;-81
2022/08/05 05:04:23;;;;;;;;;;;;;;;25.33;52.59;100735.59;4972301;28;19941;-81
2022/08/05 05:06:49;;;;;;;;;;;;;;;25.53;52.05;100745.19;4987015;28;20393;-83
2022/08/05 05:09:17;;;;;;;;;;;;;;;25.70;52.38;100740.41;4988024;28;20317;-84
2022/08/05 05:11:48;;;;;;;;;;;;;;;26.05;51.12;100741.84;4972484;28;19922;-82
2022/08/05 05:17:22;;;;;;;;;;;;;;;26.63;48.50;100742.88;4972843;28;19925;-82
2022/08/05 05:19:52;;;;;;;;;;;;;;;26.84;48.26;100743.00;4973122;28;20365;-82
2022/08/05 05:25:30;;;;;;;;;;;;;;;27.40;46.62;100747.97;4976076;28;19920;-83
2022/08/05 05:27:56;;;;;;;;;;;;;;;27.52;46.02;100738.34;4973795;28;19933;-83
2022/08/05 05:30:24;;;;;;;;;;;;;;;27.69;45.77;100737.28;4973671;28;20366;-83
2022/08/05 05:32:49;;;;;;;;;;;;;;;27.84;45.61;100736.50;4991072;28;19921;-82
2022/08/05 05:38:39;;;;;;;;;;;;;;;28.17;44.74;100737.91;5013699;28;20147;-85
2022/08/05 05:41:06;;;;;;;;;;;;;;;28.33;44.68;100728.50;5016309;28;19918;-82
2022/08/05 05:43:38;;;;;;;;;;;;;;;28.53;44.07;100729.59;5021086;28;20024;-86
2022/08/05 05:49:29;;;;;;;;;;;;;;;28.99;42.64;100727.53;4976090;28;20282;-84
2022/08/05 05:55:05;;;;;;;;;;;;;;;29.17;42.20;100728.91;4975327;28;19929;-85
2022/08/05 05:57:42;;;;;;;;;;;;;;;29.33;41.71;100726.03;4958026;28;19922;-83
2022/08/05 06:00:27;;;;;;;;;;;;;;;29.49;41.45;100724.84;4981002;28;19917;-83
2022/08/05 06:03:12;;;;;;;;;;;;;;;29.59;40.98;100735.03;5014303;28;19922;-85
2022/08/05 06:05:41;;;;;;;;;;;;;;;29.58;40.85;100723.13;5013677;28;19917;-83
2022/08/05 06:11:10;;;;;;;;;;;;;;;30.06;40.20;100725.28;5013840;28;20316;-84
2022/08/05 06:13:35;;;;;;;;;;;;;;;30.25;40.17;100723.47;5012037;28;19921;-82
2022/08/05 06:16:02;;;;;;;;;;;;;;;30.34;39.47;100726.44;4994058;28;19957;-81
2022/08/05 06:32:28;;;;;;;;;;;;;;;31.29;38.18;100732.34;4657432;28;10360674;-86
2022/08/05 06:35:02;;;;;;;;;;;;;;;31.53;37.51;100726.75;4988748;28;20020;-82
2022/08/05 06:37:39;;;;;;;;;;;;;;;31.72;37.06;100735.91;4994327;28;20329;-86
2022/08/05 06:40:07;;;;;;;;;;;;;;;32.10;36.36;100738.69;4988311;28;19929;-84
2022/08/05 06:45:37;;;;;;;;;;;;;;;32.34;35.27;100732.16;5002568;28;19920;-87
2022/08/05 06:48:04;;;;;;;;;;;;;;;32.37;34.78;100742.69;5002905;28;20012;-86
2022/08/05 06:50:32;;;;;;;;;;;;;;;32.38;34.75;100735.97;4993040;28;19971;-87
2022/08/05 06:53:02;;;;;;;;;;;;;;;32.41;34.88;100732.59;4984700;28;19996;-86
2022/08/05 06:55:29;;;;;;;;;;;;;;;32.53;34.31;100744.09;4972702;28;19918;-86
2022/08/05 06:57:56;;;;;;;;;;;;;;;32.80;34.32;100748.00;4992191;28;19921;-85
2022/08/05 07:00:22;;;;;;;;;;;;;;;32.90;33.57;100755.38;4958846;28;20016;-82
2022/08/05 07:02:47;;;;;;;;;;;;;;;33.18;32.50;100748.69;4972586;28;19922;-86
2022/08/05 07:05:16;;;;;;;;;;;;;;;33.33;32.44;100757.84;4989031;28;19964;-85
2022/08/05 07:07:43;;;;;;;;;;;;;;;33.61;32.45;100747.47;4991432;28;20429;-85
2022/08/05 07:10:10;;;;;;;;;;;;;;;33.77;31.56;100765.50;4992470;28;19918;-84
2022/08/05 07:18:20;;;;;;;;;;;;;;;34.42;30.33;100761.41;4992435;28;20394;-84
2022/08/05 07:20:58;;;;;;;;;;;;;;;34.05;30.34;100751.44;5007672;28;19953;-85
2022/08/05 07:23:53;;;;;;;;;;;;;;;34.28;30.66;100757.03;4991418;28;19950;-88
2022/08/05 07:26:30;;;;;;;;;;;;;;;34.57;29.81;100757.38;4986596;28;20006;-86
2022/08/05 07:28:55;;;;;;;;;;;;;;;34.84;29.49;100763.94;4993323;28;19921;-85
2022/08/05 07:31:21;;;;;;;;;;;;;;;35.12;29.16;100763.72;4978537;28;19918;-91
2022/08/05 07:33:49;;;;;;;;;;;;;;;35.29;28.66;100761.81;5000580;28;19925;-86
2022/08/05 07:36:19;;;;;;;;;;;;;;;35.23;28.63;100753.91;4998304;28;19921;-91
2022/08/05 07:38:52;;;;;;;;;;;;;;;35.64;27.41;100752.69;5006505;28;19925;-87
2022/08/05 07:41:24;;;;;;;;;;;;;;;35.46;27.83;100754.59;5012330;28;19925;-86
2022/08/05 07:43:51;;;;;;;;;;;;;;;35.79;27.62;100754.97;5013441;28;19921;-90
2022/08/05 07:46:27;;;;;;;;;;;;;;;35.60;27.39;100758.06;5013481;28;19926;-86
2022/08/05 07:49:00;;;;;;;;;;;;;;;35.74;26.48;100752.34;5013581;28;19918;-89
2022/08/05 07:51:37;;;;;;;;;;;;;;;35.76;26.92;100752.84;5019486;28;19924;-88
2022/08/05 07:54:05;;;;;;;;;;;;;;;35.93;26.98;100752.84;5013644;28;19922;-89
2022/08/05 07:56:33;;;;;;;;;;;;;;;35.99;26.65;100752.66;5012446;28;19928;-87
2022/08/05 07:59:19;;;;;;;;;;;;;;;35.83;26.95;100746.78;5013794;28;19917;-88
2022/08/05 08:01:48;;;;;;;;;;;;;;;35.42;27.08;100762.81;5014099;28;20305;-87
2022/08/05 08:04:13;;;;;;;;;;;;;;;35.54;26.89;100753.78;4998845;28;19922;-87
2022/08/05 08:06:44;;;;;;;;;;;;;;;35.68;26.59;100756.47;5011835;28;19922;-86
2022/08/05 08:09:10;;;;;;;;;;;;;;;36.00;26.82;100749.53;5011655;28;20013;-89
2022/08/05 08:11:38;;;;;;;;;;;;;;;36.39;26.08;100750.50;5008811;28;20293;-89
2022/08/05 08:14:06;;;;;;;;;;;;;;;35.69;26.33;100742.16;5013338;28;19921;-84
2022/08/05 08:16:39;;;;;;;;;;;;;;;35.45;27.00;100747.34;4997128;28;19925;-84
2022/08/05 08:19:16;;;;;;;;;;;;;;;35.37;27.27;100739.81;5010313;28;20374;-84
2022/08/05 08:27:48;;;;;;;;;;;;;;;35.92;26.87;100731.63;5018058;28;19955;-85
2022/08/05 08:30:24;;;;;;;;;;;;;;;36.31;26.10;100737.34;5012572;28;20382;-86
2022/08/05 08:32:50;;;;;;;;;;;;;;;36.90;25.31;100731.03;5010309;28;19921;-86
2022/08/05 08:35:19;;;;;;;;;;;;;;;37.57;23.78;100732.97;5010873;28;19922;-82
2022/08/05 08:37:48;;;;;;;;;;;;;;;38.27;23.41;100721.13;5003037;28;19934;-81
2022/08/05 08:40:14;;;;;;;;;;;;;;;38.46;22.72;100722.56;5006629;28;19922;-83
2022/08/05 08:42:41;;;;;;;;;;;;;;;38.82;22.56;100714.19;5001841;28;20008;-82
2022/08/05 08:45:12;;;;;;;;;;;;;;;39.29;21.90;100717.66;5009642;28;20089;-82
2022/08/05 08:47:46;;;;;;;;;;;;;;;39.90;20.74;100717.53;5003385;28;20394;-83
2022/08/05 09:25:03;;;;;;;5.57;3.13;;;;;;;42.25;17.60;100691.63;5027923;27;1593613;-84
2022/08/05 09:27:36;;;;;;;5.10;3.95;;;;;;;42.59;18.04;100690.66;5031153;28;20307;-83
2022/08/05 09:30:04;;;;;;;5.72;3.63;;;;;;;43.80;16.96;100684.28;5049375;28;20130;-85
2022/08/05 09:32:36;;;;;;;6.15;3.60;;;;;;;43.56;17.39;100691.25;5048490;28;20131;-84
2022/08/05 09:35:17;;;;;;;5.22;3.72;;;;;;;42.90;17.48;100683.06;5024013;28;20045;-84
2022/08/05 09:37:57;;;;;;;5.43;3.65;;;;;;;41.86;18.79;100686.03;5058607;28;20052;-86
2022/08/05 09:40:39;;;;;;;7.10;3.60;;;;;;;40.97;19.82;100688.53;5047226;28;20805;-83
2022/08/05 09:43:06;;;;;;;4.43;3.65;;;;;;;40.02;20.89;100692.13;5049695;28;20438;-85
2022/08/05 09:45:38;;;;;;;6.20;3.85;;;;;;;38.93;21.66;100680.84;5043113;28;20040;-85
2022/08/05 09:48:26;;;;;;;4.45;3.88;;;;;;;38.12;23.89;100688.09;5065611;28;20044;-85
2022/08/05 09:51:00;;;;;;;5.20;4.35;;;;;;;35.55;33.48;100690.34;5034152;28;20048;-82
2022/08/05 09:53:27;;;;;;;8.32;4.97;;;;;;;33.81;37.50;100699.63;5036666;28;20037;-84
2022/08/05 09:55:56;;;;;;;7.82;5.22;;;;;;;33.21;39.63;100708.22;5054106;28;20128;-82
2022/08/05 09:58:24;;;;;;;8.77;5.03;;;;;;;32.09;42.22;100706.44;5044773;28;20590;-81
2022/08/05 10:00:58;;;;;;;6.53;5.28;;;;;;;30.79;45.12;100710.47;5023637;28;20544;-83
2022/08/05 10:03:27;;;;;;;7.20;5.18;;;;;;;30.27;46.62;100729.59;5045016;28;20033;-85
2022/08/05 10:06:10;;;;;;;9.15;5.43;;;;;;;29.67;48.36;100732.50;5040168;28;20025;-83
2022/08/05 10:08:37;;;;;;;8.85;5.80;;;;;;;30.36;46.77;100727.00;5027849;28;20045;-85
2022/08/05 10:11:31;;;;;;;7.20;5.38;;;;;;;33.30;40.03;100723.06;5047406;28;20128;-85
2022/08/05 10:13:56;;;;;;;5.90;5.10;;;;;;;35.16;36.25;100703.28;5021465;28;20049;-85
2022/08/05 10:16:32;;;;;;;9.85;5.00;;;;;;;34.81;36.76;100712.34;5045660;28;20029;-85
2022/08/05 10:18:59;;;;;;;9.07;4.88;;;;;;;33.35;39.10;100720.16;5014695;28;20060;-83
2022/08/05 10:21:24;;;;;;;6.35;5.10;;;;;;;32.12;41.47;100716.97;5033591;28;20476;-85
2022/08/05 10:23:50;;;;;;;6.90;4.65;;;;;;;31.98;40.95;100696.63;5025806;28;20062;-85
2022/08/05 10:26:16;;;;;;;9.10;5.50;;;;;;;31.87;41.76;100717.38;5031694;28;20036;-85
2022/08/05 10:28:44;;;;;;;7.05;5.55;;;;;;;31.07;43.51;100707.91;5047663;28;20047;-86
2022/08/05 10:31:11;;;;;;;5.22;4.72;;;;;;;34.48;37.20;100711.84;5017537;28;20044;-85
2022/08/05 10:33:37;;;;;;;8.30;4.78;;;;;;;36.27;33.19;100708.38;5047369;28;20037;-85
2022/08/05 10:36:04;;;;;;;7.85;5.00;;;;;;;36.17;33.41;100700.34;5032534;28;20021;-84
2022/08/05 10:38:32;;;;;;;6.45;4.72;;;;;;;35.01;36.20;100713.72;5015742;28;20037;-84
2022/08/05 10:41:14;;;;;;;6.30;5.15;;;;;;;35.25;35.39;100690.13;5031889;28;20040;-84
2022/08/05 10:44:06;;;;;;;9.18;5.05;;;;;;;38.06;30.88;100707.16;5016780;28;20523;-86
2022/08/05 10:46:58;;;;;;;7.20;4.85;;;;;;;37.13;31.96;100712.81;5026168;28;20037;-84
2022/08/05 10:49:25;;;;;;;6.80;4.40;;;;;;;36.05;33.20;100703.78;5042396;28;20052;-84
2022/08/05 10:51:57;;;;;;;9.10;4.80;;;;;;;36.66;32.90;100707.25;5032825;28;20047;-84
2022/08/05 10:54:24;;;;;;;7.85;4.70;;;;;;;36.49;32.49;100704.53;5028273;28;20056;-84
2022/08/05 10:56:54;;;;;;;7.05;4.90;;;;;;;35.45;34.73;100691.44;5032264;28;20048;-85
2022/08/05 10:59:27;;;;;;;12.38;5.03;;;;;;;36.58;33.53;100699.75;5029272;28;20044;-85
2022/08/05 11:02:13;;;;;;;6.88;4.90;;;;;;;36.26;34.20;100701.94;5031154;28;20037;-86
2022/08/05 11:04:47;;;;;;;11.45;5.20;;;;;;;35.15;36.10;100718.41;5036121;28;20477;-85
2022/08/05 11:07:16;;;;;;;8.57;4.90;;;;;;;33.84;37.34;100698.16;5013359;28;20068;-89
2022/08/05 11:09:55;;;;;;;7.55;4.80;;;;;;;32.80;39.52;100698.75;5042984;28;20041;-89
2022/08/05 11:12:37;;;;;;;6.25;5.00;;;;;;;32.79;39.45;100710.19;5034499;28;20048;-86
2022/08/05 11:15:24;;;;;;;10.00;5.57;;;;;;;32.07;40.53;100694.78;5049416;28;20025;-86
2022/08/05 11:17:53;;;;;;;7.20;4.78;;;;;;;33.25;38.02;100695.34;5028922;28;20067;-88
2022/08/05 11:20:40;;;;;;;7.28;5.00;;;;;;;34.40;36.06;100681.94;5003136;28;20124;-86
2022/08/05 11:23:31;;;;;;;7.55;4.82;;;;;;;34.83;35.50;100692.47;5024911;28;20115;-86
2022/08/05 11:26:16;;;;;;;12.63;4.90;;;;;;;34.33;36.69;100689.97;5044186;28;20029;-85
2022/08/05 11:28:47;;;;;;;9.80;4.80;;;;;;;34.37;36.21;100668.63;5015777;28;20033;-88
2022/08/05 11:31:16;;;;;;;5.47;4.70;;;;;;;35.11;35.76;100683.88;5012842;28;20045;-87
2022/08/05 11:33:55;;;;;;;7.95;5.10;;;;;;;35.05;35.64;100678.41;5046363;28;20033;-88
2022/08/05 11:36:45;;;;;;;8.77;5.00;;;;;;;34.37;37.38;100672.25;5048785;28;20033;-85
2022/08/05 11:39:12;;;;;;;6.28;4.88;;;;;;;34.01;37.53;100675.13;5013948;28;20025;-89
2022/08/05 11:41:40;;;;;;;8.27;4.97;;;;;;;33.88;37.70;100665.72;5054119;28;20511;-90
2022/08/05 11:44:14;;;;;;;11.68;5.20;;;;;;;34.37;37.52;100677.84;5031947;28;20025;-89
2022/08/05 11:46:52;;;;;;;8.93;5.20;;;;;;;34.36;37.13;100675.34;5021723;28;20055;-90
2022/08/05 11:49:20;;;;;;;5.68;4.55;;;;;;;33.88;37.53;100668.50;5014690;28;20033;-89
2022/08/05 11:51:50;;;;;;;11.75;5.07;;;;;;;33.57;38.58;100674.00;5036558;28;20025;-89
2022/08/05 11:54:23;;;;;;;6.32;4.55;;;;;;;33.71;38.16;100669.19;5011550;28;20106;-90
2022/08/05 11:56:59;;;;;;;8.27;5.20;;;;;;;32.90;39.94;100663.50;5025150;28;20033;-93
2022/08/05 11:59:26;;;;;;;7.68;5.15;;;;;;;32.88;39.59;100677.72;5008391;28;20552;-87
2022/08/05 12:02:04;;;;;;;8.60;6.07;;;;;;;32.97;39.85;100673.06;5042721;28;20083;-87
2022/08/05 12:04:41;;;;;;;9.73;5.18;;;;;;;33.03;40.27;100676.53;5002602;28;20041;-85
2022/08/05 12:07:08;;;;;;;7.00;4.63;;;;;;;32.49;41.01;100670.66;5030407;28;20132;-87
2022/08/05 12:09:43;;;;;;;6.68;5.10;;;;;;;32.32;41.39;100671.28;5009303;28;20515;-87
2022/08/05 12:12:09;;;;;;;6.57;4.95;;;;;;;32.07;42.77;100680.88;5032328;28;20041;-87
2022/08/05 12:14:48;;;;;;;6.28;4.90;;;;;;;30.82;46.16;100673.78;5053032;28;20036;-86
2022/08/05 12:17:14;;;;;;;8.18;5.72;;;;;;;31.68;44.41;100679.31;5030632;28;20037;-86
2022/08/05 12:19:54;;;;;;;6.97;5.00;;;;;;;31.60;45.09;100673.59;5028789;28;21745;-85
2022/08/05 12:22:28;;;;;;;8.85;5.18;;;;;;;31.30;45.80;100672.88;5043336;28;20029;-84
2022/08/05 12:24:56;;;;;;;8.63;5.10;;;;;;;31.18;45.78;100676.13;5038069;28;20138;-84
2022/08/05 12:27:23;;;;;;;6.32;5.32;;;;;;;31.04;45.32;100669.66;5017066;28;20543;-83
2022/08/05 12:30:04;;;;;;;5.47;4.90;;;;;;;31.32;43.49;100671.47;5012970;28;20134;-83
2022/08/05 12:32:31;;;;;;;6.55;5.15;;;;;;;30.84;45.57;100677.13;5003677;28;20058;-83
2022/08/05 12:34:57;;;;;;;9.07;5.55;;;;;;;30.44;47.03;100662.56;5034896;28;20040;-84
2022/08/05 12:37:29;;;;;;;8.18;5.10;;;;;;;29.95;48.50;100655.28;5036936;28;20044;-84
2022/08/05 12:39:55;;;;;;;9.32;5.65;;;;;;;30.27;48.63;100664.97;4996719;28;20094;-84
2022/08/05 12:42:21;;;;;;;6.85;5.07;;;;;;;30.26;47.83;100660.56;5014168;28;20025;-84
2022/08/05 12:44:49;;;;;;;6.28;4.97;;;;;;;30.34;46.89;100659.91;5028778;28;20033;-84
2022/08/05 12:47:28;;;;;;;9.23;5.28;;;;;;;30.12;47.08;100656.78;5047955;28;20040;-84
2022/08/05 12:49:54;;;;;;;7.38;5.15;;;;;;;30.28;47.31;100667.44;5045398;28;20040;-83
2022/08/05 12:52:22;;;;;;;7.60;5.07;;;;;;;30.41;47.45;100663.16;5029303;28;20031;-84
2022/08/05 12:54:49;;;;;;;5.88;5.28;;;;;;;30.12;48.21;100665.91;5022420;28;20107;-84
2022/08/05 12:57:17;;;;;;;6.28;5.47;;;;;;;30.55;47.11;100659.69;5029309;28;20025;-84
2022/08/05 12:59:50;;;;;;;6.95;5.78;;;;;;;30.60;48.07;100654.91;5025572;28;20026;-85
2022/08/05 13:02:28;;;;;;;9.73;5.47;;;;;;;30.58;48.47;100656.31;5048837;28;20040;-84
2022/08/05 13:04:56;;;;;;;6.90;5.40;;;;;;;30.33;48.52;100658.25;5015305;28;20044;-84
2022/08/05 13:07:25;;;;;;;8.00;5.75;;;;;;;30.41;48.29;100659.56;5029960;28;20115;-84
2022/08/05 13:09:52;;;;;;;10.25;5.60;;;;;;;30.45;48.60;100655.91;5046388;28;20040;-84
2022/08/05 13:12:22;;;;;;;8.88;5.70;;;;;;;30.85;47.27;100655.75;5032299;28;20017;-84
2022/08/05 13:14:58;;;;;;;8.07;5.60;;;;;;;30.36;48.33;100646.56;5008742;28;20032;-83
2022/08/05 13:17:25;;;;;;;6.85;5.60;;;;;;;30.20;49.11;100650.59;5015109;28;20098;-84
2022/08/05 13:20:17;;;;;;;10.25;5.65;;;;;;;29.66;50.57;100653.28;5043320;28;20061;-84
2022/08/05 13:22:52;;;;;;;6.85;5.60;;;;;;;29.73;51.17;100657.66;5024917;28;20039;-84
2022/08/05 13:25:41;;;;;;;15.52;6.07;;;;;;;29.71;51.16;100648.81;5011706;28;20512;-83
2022/08/05 13:28:06;;;;;;;8.73;6.00;;;;;;;29.72;49.03;100640.22;5049895;28;20037;-84
2022/08/05 13:30:32;;;;;;;8.15;5.68;;;;;;;29.58;49.60;100645.56;5048457;28;20040;-83
2022/08/05 13:32:57;;;;;;;9.07;5.70;;;;;;;29.51;50.52;100652.56;5050744;28;20511;-84
2022/08/05 13:35:23;;;;;;;12.40;5.90;;;;;;;29.64;50.64;100644.41;5050947;28;20056;-84
2022/08/05 13:37:52;;;;;;;8.20;5.85;;;;;;;29.65;49.96;100634.97;5020628;28;20075;-83
2022/08/05 13:40:18;;;;;;;6.93;5.50;;;;;;;29.78;48.61;100643.75;5030997;28;20037;-84
2022/08/05 13:42:44;;;;;;;7.28;5.30;;;;;;;29.84;48.72;100639.84;5048336;28;20466;-84
2022/08/05 13:45:12;;;;;;;6.78;5.10;;;;;;;29.71;49.02;100621.09;5021743;28;20057;-84